CheckWX is a tool to help pilots better visualize weather data.  It is not intended as a substitute for an official pre-flight weather briefing.

05:51:56 UTC

KBHK METAR
Baker Municipal Airport
Baker, Montana, USA
Current

1 hour ago

KBHK 190451Z AUTO 27007KT 10SM CLR M22/M24 A3041 RMK AO2 SLP378 T12171244
Observed
Jan-19 @ 04:51 UTC
Wind
  • 270° at 7 KTS
Visibility
10 SM
Flight Rules
VFR
Cloud Levels
  • Clear skies
Temperature
-22°C / -8°F
Dewpoint
-24°C / -11°F
Humidity
84%
Altimeter
30.41" Hg
Pressure
1029.82 hPa
Previous

2 hours ago

KBHK 190351Z AUTO 30008KT 10SM CLR M21/M24 A3039 RMK AO2 SLP373 T12111244
Observed
Jan-19 @ 03:51 UTC
Wind
  • 300° at 8 KTS
Visibility
10 SM
Flight Rules
VFR
Cloud Levels
  • Clear skies
Temperature
-21°C / -6°F
Dewpoint
-24°C / -11°F
Humidity
77%
Altimeter
30.39" Hg
Pressure
1029.12 hPa
Previous

3 hours ago

KBHK 190251Z AUTO 30008KT 10SM CLR M20/M24 A3037 RMK AO2 SLP368 T12001239 53012
Observed
Jan-19 @ 02:51 UTC
Wind
  • 300° at 8 KTS
Visibility
10 SM
Flight Rules
VFR
Cloud Levels
  • Clear skies
Temperature
-20°C / -4°F
Dewpoint
-24°C / -11°F
Humidity
71%
Altimeter
30.37" Hg
Pressure
1028.42 hPa